sensor_id;sensor_type;location;lat;lon;timestamp;P1;durP1;ratioP1;P2;durP2;ratioP2
6197;SDS011;3132;42.622;23.328;2023-06-14T00:00:10;16.23;;;14.67;;
6197;SDS011;3132;42.622;23.328;2023-06-14T00:02:38;16.70;;;15.10;;
6197;SDS011;3132;42.622;23.328;2023-06-14T00:05:04;17.17;;;13.93;;
6197;SDS011;3132;42.622;23.328;2023-06-14T00:07:37;16.87;;;15.00;;
6197;SDS011;3132;42.622;23.328;2023-06-14T00:10:07;16.00;;;14.53;;
6197;SDS011;3132;42.622;23.328;2023-06-14T00:12:34;14.63;;;13.20;;
6197;SDS011;3132;42.622;23.328;2023-06-14T00:15:00;16.73;;;15.17;;
6197;SDS011;3132;42.622;23.328;2023-06-14T00:17:26;17.00;;;15.20;;
6197;SDS011;3132;42.622;23.328;2023-06-14T00:19:55;14.80;;;13.40;;
6197;SDS011;3132;42.622;23.328;2023-06-14T00:22:22;15.50;;;14.07;;
6197;SDS011;3132;42.622;23.328;2023-06-14T00:24:49;15.80;;;14.23;;
6197;SDS011;3132;42.622;23.328;2023-06-14T00:27:15;15.33;;;14.00;;
6197;SDS011;3132;42.622;23.328;2023-06-14T00:29:41;14.20;;;13.10;;
6197;SDS011;3132;42.622;23.328;2023-06-14T00:32:06;14.57;;;13.27;;
6197;SDS011;3132;42.622;23.328;2023-06-14T00:34:32;14.67;;;13.43;;
6197;SDS011;3132;42.622;23.328;2023-06-14T00:36:58;14.20;;;13.03;;
6197;SDS011;3132;42.622;23.328;2023-06-14T00:39:23;13.63;;;12.53;;
6197;SDS011;3132;42.622;23.328;2023-06-14T00:41:49;13.63;;;12.53;;
6197;SDS011;3132;42.622;23.328;2023-06-14T00:44:14;15.87;;;14.27;;
6197;SDS011;3132;42.622;23.328;2023-06-14T00:46:42;14.50;;;13.30;;
6197;SDS011;3132;42.622;23.328;2023-06-14T00:49:07;13.13;;;12.10;;
6197;SDS011;3132;42.622;23.328;2023-06-14T00:51:33;13.73;;;12.53;;
6197;SDS011;3132;42.622;23.328;2023-06-14T00:53:59;14.77;;;13.50;;
6197;SDS011;3132;42.622;23.328;2023-06-14T00:56:25;14.43;;;13.00;;
6197;SDS011;3132;42.622;23.328;2023-06-14T00:58:52;14.90;;;13.63;;
6197;SDS011;3132;42.622;23.328;2023-06-14T01:01:18;13.83;;;12.63;;
6197;SDS011;3132;42.622;23.328;2023-06-14T01:03:43;13.63;;;12.63;;
6197;SDS011;3132;42.622;23.328;2023-06-14T01:14:18;14.13;;;12.83;;
6197;SDS011;3132;42.622;23.328;2023-06-14T01:16:46;13.70;;;12.47;;
6197;SDS011;3132;42.622;23.328;2023-06-14T01:19:12;14.53;;;13.33;;
6197;SDS011;3132;42.622;23.328;2023-06-14T01:21:39;13.43;;;12.33;;
6197;SDS011;3132;42.622;23.328;2023-06-14T01:24:07;13.70;;;12.63;;
6197;SDS011;3132;42.622;23.328;2023-06-14T01:26:36;13.60;;;12.43;;
6197;SDS011;3132;42.622;23.328;2023-06-14T01:29:03;14.23;;;13.13;;
6197;SDS011;3132;42.622;23.328;2023-06-14T01:31:29;14.80;;;13.07;;
6197;SDS011;3132;42.622;23.328;2023-06-14T01:34:04;14.43;;;13.23;;
6197;SDS011;3132;42.622;23.328;2023-06-14T01:36:30;13.13;;;12.13;;
6197;SDS011;3132;42.622;23.328;2023-06-14T01:38:56;15.17;;;13.83;;
6197;SDS011;3132;42.622;23.328;2023-06-14T01:41:24;14.73;;;13.63;;
6197;SDS011;3132;42.622;23.328;2023-06-14T01:43:49;14.17;;;12.80;;
6197;SDS011;3132;42.622;23.328;2023-06-14T01:46:17;13.67;;;12.47;;
6197;SDS011;3132;42.622;23.328;2023-06-14T01:48:42;14.13;;;12.87;;
6197;SDS011;3132;42.622;23.328;2023-06-14T01:51:08;14.97;;;13.60;;
6197;SDS011;3132;42.622;23.328;2023-06-14T01:53:34;14.50;;;13.30;;
6197;SDS011;3132;42.622;23.328;2023-06-14T01:55:59;14.03;;;12.83;;
6197;SDS011;3132;42.622;23.328;2023-06-14T01:58:26;13.40;;;12.33;;
6197;SDS011;3132;42.622;23.328;2023-06-14T02:00:51;14.50;;;13.30;;
6197;SDS011;3132;42.622;23.328;2023-06-14T02:03:20;14.00;;;12.80;;
6197;SDS011;3132;42.622;23.328;2023-06-14T02:05:45;13.40;;;12.33;;
6197;SDS011;3132;42.622;23.328;2023-06-14T02:08:11;13.07;;;11.63;;
6197;SDS011;3132;42.622;23.328;2023-06-14T02:10:36;15.03;;;13.73;;
6197;SDS011;3132;42.622;23.328;2023-06-14T02:13:02;14.40;;;13.27;;
6197;SDS011;3132;42.622;23.328;2023-06-14T02:15:27;15.00;;;13.80;;
6197;SDS011;3132;42.622;23.328;2023-06-14T02:17:58;13.73;;;12.73;;
6197;SDS011;3132;42.622;23.328;2023-06-14T02:20:24;14.50;;;13.00;;
6197;SDS011;3132;42.622;23.328;2023-06-14T02:22:49;14.57;;;13.23;;
6197;SDS011;3132;42.622;23.328;2023-06-14T02:25:15;14.13;;;13.03;;
6197;SDS011;3132;42.622;23.328;2023-06-14T02:27:40;15.43;;;14.23;;
6197;SDS011;3132;42.622;23.328;2023-06-14T02:30:06;14.83;;;13.50;;
6197;SDS011;3132;42.622;23.328;2023-06-14T02:32:32;15.73;;;14.33;;
6197;SDS011;3132;42.622;23.328;2023-06-14T02:35:00;15.17;;;13.87;;
6197;SDS011;3132;42.622;23.328;2023-06-14T02:37:26;14.40;;;13.20;;
6197;SDS011;3132;42.622;23.328;2023-06-14T02:39:51;14.77;;;13.57;;
6197;SDS011;3132;42.622;23.328;2023-06-14T02:42:16;14.90;;;13.60;;
6197;SDS011;3132;42.622;23.328;2023-06-14T02:44:42;14.63;;;13.43;;
6197;SDS011;3132;42.622;23.328;2023-06-14T02:47:08;13.17;;;11.97;;
6197;SDS011;3132;42.622;23.328;2023-06-14T02:49:33;13.83;;;12.70;;
6197;SDS011;3132;42.622;23.328;2023-06-14T02:51:59;14.03;;;12.83;;
6197;SDS011;3132;42.622;23.328;2023-06-14T02:54:24;14.53;;;13.33;;
6197;SDS011;3132;42.622;23.328;2023-06-14T02:56:50;15.20;;;14.00;;
6197;SDS011;3132;42.622;23.328;2023-06-14T02:59:15;14.03;;;12.83;;
6197;SDS011;3132;42.622;23.328;2023-06-14T03:01:42;15.00;;;13.70;;
6197;SDS011;3132;42.622;23.328;2023-06-14T03:04:08;14.33;;;13.07;;
6197;SDS011;3132;42.622;23.328;2023-06-14T03:06:33;14.87;;;13.03;;
6197;SDS011;3132;42.622;23.328;2023-06-14T03:09:02;14.60;;;13.47;;
6197;SDS011;3132;42.622;23.328;2023-06-14T03:11:32;13.40;;;12.30;;
6197;SDS011;3132;42.622;23.328;2023-06-14T03:13:57;14.00;;;12.87;;
6197;SDS011;3132;42.622;23.328;2023-06-14T03:16:23;13.33;;;12.23;;
6197;SDS011;3132;42.622;23.328;2023-06-14T03:18:52;15.77;;;14.17;;
6197;SDS011;3132;42.622;23.328;2023-06-14T03:21:18;14.07;;;12.87;;
6197;SDS011;3132;42.622;23.328;2023-06-14T03:23:47;13.90;;;12.80;;
6197;SDS011;3132;42.622;23.328;2023-06-14T03:26:13;13.03;;;12.13;;
6197;SDS011;3132;42.622;23.328;2023-06-14T03:28:43;14.30;;;13.20;;
6197;SDS011;3132;42.622;23.328;2023-06-14T03:31:09;14.07;;;12.97;;
6197;SDS011;3132;42.622;23.328;2023-06-14T03:33:34;14.37;;;13.23;;
6197;SDS011;3132;42.622;23.328;2023-06-14T03:36:01;13.53;;;12.17;;
6197;SDS011;3132;42.622;23.328;2023-06-14T03:38:27;14.40;;;13.20;;
6197;SDS011;3132;42.622;23.328;2023-06-14T03:40:52;14.17;;;12.83;;
6197;SDS011;3132;42.622;23.328;2023-06-14T03:43:17;13.93;;;12.53;;
6197;SDS011;3132;42.622;23.328;2023-06-14T03:45:43;14.43;;;13.00;;
6197;SDS011;3132;42.622;23.328;2023-06-14T03:48:08;14.90;;;13.37;;
6197;SDS011;3132;42.622;23.328;2023-06-14T03:50:34;12.80;;;11.60;;
6197;SDS011;3132;42.622;23.328;2023-06-14T03:53:03;14.53;;;13.00;;
6197;SDS011;3132;42.622;23.328;2023-06-14T03:55:28;13.90;;;12.50;;
6197;SDS011;3132;42.622;23.328;2023-06-14T03:57:56;14.10;;;12.90;;
6197;SDS011;3132;42.622;23.328;2023-06-14T04:00:21;14.30;;;13.07;;
6197;SDS011;3132;42.622;23.328;2023-06-14T04:02:47;15.80;;;14.37;;
6197;SDS011;3132;42.622;23.328;2023-06-14T04:05:13;14.10;;;13.00;;
6197;SDS011;3132;42.622;23.328;2023-06-14T04:07:41;13.70;;;12.50;;
6197;SDS011;3132;42.622;23.328;2023-06-14T04:10:09;14.97;;;13.77;;
6197;SDS011;3132;42.622;23.328;2023-06-14T04:12:36;12.57;;;11.60;;
6197;SDS011;3132;42.622;23.328;2023-06-14T04:15:01;13.73;;;12.67;;
6197;SDS011;3132;42.622;23.328;2023-06-14T04:17:28;13.20;;;12.10;;
6197;SDS011;3132;42.622;23.328;2023-06-14T04:19:53;13.97;;;12.87;;
6197;SDS011;3132;42.622;23.328;2023-06-14T04:22:18;14.53;;;13.27;;
6197;SDS011;3132;42.622;23.328;2023-06-14T04:24:44;14.33;;;13.03;;
6197;SDS011;3132;42.622;23.328;2023-06-14T04:27:09;15.30;;;14.00;;
6197;SDS011;3132;42.622;23.328;2023-06-14T04:29:35;15.77;;;14.10;;
6197;SDS011;3132;42.622;23.328;2023-06-14T04:32:01;16.13;;;14.63;;
6197;SDS011;3132;42.622;23.328;2023-06-14T04:34:26;17.10;;;15.40;;
6197;SDS011;3132;42.622;23.328;2023-06-14T04:36:58;15.63;;;14.27;;
6197;SDS011;3132;42.622;23.328;2023-06-14T04:39:26;15.10;;;13.67;;
6197;SDS011;3132;42.622;23.328;2023-06-14T04:41:52;14.80;;;13.50;;
6197;SDS011;3132;42.622;23.328;2023-06-14T04:44:22;13.43;;;12.23;;
6197;SDS011;3132;42.622;23.328;2023-06-14T04:46:54;13.73;;;12.57;;
6197;SDS011;3132;42.622;23.328;2023-06-14T04:49:21;14.70;;;13.30;;
6197;SDS011;3132;42.622;23.328;2023-06-14T04:51:48;14.63;;;13.33;;
6197;SDS011;3132;42.622;23.328;2023-06-14T04:54:16;15.03;;;13.63;;
6197;SDS011;3132;42.622;23.328;2023-06-14T04:56:43;15.17;;;13.80;;
6197;SDS011;3132;42.622;23.328;2023-06-14T04:59:10;15.10;;;13.70;;
6197;SDS011;3132;42.622;23.328;2023-06-14T05:01:39;14.13;;;12.83;;
6197;SDS011;3132;42.622;23.328;2023-06-14T05:04:05;15.37;;;13.87;;
6197;SDS011;3132;42.622;23.328;2023-06-14T05:06:30;14.83;;;13.63;;
6197;SDS011;3132;42.622;23.328;2023-06-14T05:08:56;15.10;;;13.70;;
6197;SDS011;3132;42.622;23.328;2023-06-14T05:11:21;15.30;;;13.90;;
6197;SDS011;3132;42.622;23.328;2023-06-14T05:13:49;15.37;;;13.97;;
6197;SDS011;3132;42.622;23.328;2023-06-14T05:16:15;14.33;;;13.00;;
6197;SDS011;3132;42.622;23.328;2023-06-14T05:18:44;16.03;;;14.53;;
6197;SDS011;3132;42.622;23.328;2023-06-14T05:21:11;15.80;;;13.85;;
6197;SDS011;3132;42.622;23.328;2023-06-14T05:23:36;15.82;;;14.27;;
6197;SDS011;3132;42.622;23.328;2023-06-14T05:26:01;16.73;;;15.02;;
6197;SDS011;3132;42.622;23.328;2023-06-14T05:28:29;16.73;;;15.20;;
6197;SDS011;3132;42.622;23.328;2023-06-14T05:30:55;17.30;;;15.48;;
6197;SDS011;3132;42.622;23.328;2023-06-14T05:33:21;16.80;;;15.20;;
6197;SDS011;3132;42.622;23.328;2023-06-14T05:35:46;16.10;;;14.60;;
6197;SDS011;3132;42.622;23.328;2023-06-14T05:38:12;16.67;;;14.32;;
6197;SDS011;3132;42.622;23.328;2023-06-14T05:40:37;16.55;;;14.82;;
6197;SDS011;3132;42.622;23.328;2023-06-14T05:43:02;17.27;;;15.43;;
6197;SDS011;3132;42.622;23.328;2023-06-14T05:45:28;16.10;;;14.52;;
6197;SDS011;3132;42.622;23.328;2023-06-14T05:47:53;17.58;;;15.75;;
6197;SDS011;3132;42.622;23.328;2023-06-14T05:50:20;16.63;;;14.98;;
6197;SDS011;3132;42.622;23.328;2023-06-14T05:52:45;16.55;;;14.95;;
6197;SDS011;3132;42.622;23.328;2023-06-14T05:55:11;17.95;;;15.85;;
6197;SDS011;3132;42.622;23.328;2023-06-14T05:57:39;21.98;;;15.48;;
6197;SDS011;3132;42.622;23.328;2023-06-14T06:00:06;18.92;;;15.60;;
6197;SDS011;3132;42.622;23.328;2023-06-14T06:02:36;17.75;;;15.95;;
6197;SDS011;3132;42.622;23.328;2023-06-14T06:05:02;17.55;;;15.75;;
6197;SDS011;3132;42.622;23.328;2023-06-14T06:07:27;18.90;;;16.33;;
6197;SDS011;3132;42.622;23.328;2023-06-14T06:09:53;19.30;;;16.33;;
6197;SDS011;3132;42.622;23.328;2023-06-14T06:12:18;19.93;;;17.40;;
6197;SDS011;3132;42.622;23.328;2023-06-14T06:14:44;18.97;;;16.83;;
6197;SDS011;3132;42.622;23.328;2023-06-14T06:17:09;18.70;;;16.83;;
6197;SDS011;3132;42.622;23.328;2023-06-14T06:19:34;21.20;;;18.03;;
6197;SDS011;3132;42.622;23.328;2023-06-14T06:22:00;18.50;;;16.70;;
6197;SDS011;3132;42.622;23.328;2023-06-14T06:24:25;19.10;;;16.57;;
6197;SDS011;3132;42.622;23.328;2023-06-14T06:26:51;18.50;;;16.60;;
6197;SDS011;3132;42.622;23.328;2023-06-14T06:29:16;18.60;;;16.67;;
6197;SDS011;3132;42.622;23.328;2023-06-14T06:31:41;18.37;;;16.43;;
6197;SDS011;3132;42.622;23.328;2023-06-14T06:34:07;18.60;;;16.70;;
6197;SDS011;3132;42.622;23.328;2023-06-14T06:36:32;19.60;;;17.60;;
6197;SDS011;3132;42.622;23.328;2023-06-14T06:38:57;19.87;;;17.23;;
6197;SDS011;3132;42.622;23.328;2023-06-14T06:41:23;23.90;;;17.03;;
6197;SDS011;3132;42.622;23.328;2023-06-14T06:43:48;18.20;;;15.90;;
6197;SDS011;3132;42.622;23.328;2023-06-14T06:46:14;18.27;;;16.47;;
6197;SDS011;3132;42.622;23.328;2023-06-14T06:48:39;21.67;;;17.00;;
6197;SDS011;3132;42.622;23.328;2023-06-14T06:51:04;17.83;;;15.73;;
6197;SDS011;3132;42.622;23.328;2023-06-14T06:53:30;17.63;;;15.83;;
6197;SDS011;3132;42.622;23.328;2023-06-14T06:55:56;18.20;;;15.97;;
6197;SDS011;3132;42.622;23.328;2023-06-14T06:58:21;18.30;;;16.50;;
6197;SDS011;3132;42.622;23.328;2023-06-14T07:00:47;38.13;;;35.07;;
6197;SDS011;3132;42.622;23.328;2023-06-14T07:03:12;24.10;;;21.87;;
6197;SDS011;3132;42.622;23.328;2023-06-14T07:05:38;17.97;;;16.07;;
6197;SDS011;3132;42.622;23.328;2023-06-14T07:08:03;18.60;;;16.60;;
6197;SDS011;3132;42.622;23.328;2023-06-14T07:10:29;19.47;;;16.30;;
6197;SDS011;3132;42.622;23.328;2023-06-14T07:12:54;23.40;;;15.47;;
6197;SDS011;3132;42.622;23.328;2023-06-14T07:15:19;17.13;;;15.27;;
6197;SDS011;3132;42.622;23.328;2023-06-14T07:17:45;18.17;;;16.27;;
6197;SDS011;3132;42.622;23.328;2023-06-14T07:20:10;17.60;;;15.85;;
6197;SDS011;3132;42.622;23.328;2023-06-14T07:22:38;17.80;;;16.00;;
6197;SDS011;3132;42.622;23.328;2023-06-14T07:25:05;20.30;;;15.05;;
6197;SDS011;3132;42.622;23.328;2023-06-14T07:27:31;17.55;;;15.10;;
6197;SDS011;3132;42.622;23.328;2023-06-14T07:29:57;19.92;;;17.92;;
6197;SDS011;3132;42.622;23.328;2023-06-14T07:32:22;16.42;;;14.80;;
6197;SDS011;3132;42.622;23.328;2023-06-14T07:34:47;22.00;;;16.67;;
6197;SDS011;3132;42.622;23.328;2023-06-14T07:37:13;18.27;;;16.38;;
6197;SDS011;3132;42.622;23.328;2023-06-14T07:39:38;21.63;;;16.90;;
6197;SDS011;3132;42.622;23.328;2023-06-14T07:42:03;18.33;;;16.38;;
6197;SDS011;3132;42.622;23.328;2023-06-14T07:44:30;19.30;;;16.80;;
6197;SDS011;3132;42.622;23.328;2023-06-14T07:46:58;20.25;;;16.83;;
6197;SDS011;3132;42.622;23.328;2023-06-14T07:49:25;17.98;;;15.57;;
6197;SDS011;3132;42.622;23.328;2023-06-14T07:51:50;19.02;;;17.05;;
6197;SDS011;3132;42.622;23.328;2023-06-14T07:54:16;21.17;;;16.63;;
6197;SDS011;3132;42.622;23.328;2023-06-14T07:56:41;21.05;;;17.02;;
6197;SDS011;3132;42.622;23.328;2023-06-14T07:59:07;18.80;;;15.82;;
6197;SDS011;3132;42.622;23.328;2023-06-14T08:01:32;17.80;;;15.65;;
6197;SDS011;3132;42.622;23.328;2023-06-14T08:03:58;18.23;;;16.40;;
6197;SDS011;3132;42.622;23.328;2023-06-14T08:06:23;17.48;;;15.07;;
6197;SDS011;3132;42.622;23.328;2023-06-14T08:08:50;17.55;;;15.77;;
6197;SDS011;3132;42.622;23.328;2023-06-14T08:11:15;17.50;;;15.70;;
6197;SDS011;3132;42.622;23.328;2023-06-14T08:13:41;18.92;;;16.95;;
6197;SDS011;3132;42.622;23.328;2023-06-14T08:16:06;18.02;;;16.33;;
6197;SDS011;3132;42.622;23.328;2023-06-14T08:18:31;19.00;;;15.70;;
6197;SDS011;3132;42.622;23.328;2023-06-14T08:20:57;17.45;;;15.60;;
6197;SDS011;3132;42.622;23.328;2023-06-14T08:23:22;17.25;;;14.82;;
6197;SDS011;3132;42.622;23.328;2023-06-14T08:25:48;19.42;;;15.13;;
6197;SDS011;3132;42.622;23.328;2023-06-14T08:28:13;19.60;;;14.77;;
6197;SDS011;3132;42.622;23.328;2023-06-14T08:30:39;17.73;;;15.35;;
6197;SDS011;3132;42.622;23.328;2023-06-14T08:33:04;19.55;;;16.20;;
6197;SDS011;3132;42.622;23.328;2023-06-14T08:35:30;18.35;;;16.25;;
6197;SDS011;3132;42.622;23.328;2023-06-14T08:37:55;19.27;;;17.17;;
6197;SDS011;3132;42.622;23.328;2023-06-14T08:40:21;18.95;;;16.95;;
6197;SDS011;3132;42.622;23.328;2023-06-14T08:42:50;18.30;;;16.48;;
6197;SDS011;3132;42.622;23.328;2023-06-14T08:45:17;25.25;;;18.35;;
6197;SDS011;3132;42.622;23.328;2023-06-14T08:47:43;20.80;;;16.95;;
6197;SDS011;3132;42.622;23.328;2023-06-14T08:50:10;18.73;;;16.17;;
6197;SDS011;3132;42.622;23.328;2023-06-14T08:52:37;18.58;;;16.45;;
6197;SDS011;3132;42.622;23.328;2023-06-14T08:55:10;19.58;;;16.48;;
6197;SDS011;3132;42.622;23.328;2023-06-14T08:57:36;19.55;;;16.95;;
6197;SDS011;3132;42.622;23.328;2023-06-14T09:00:03;18.55;;;16.60;;
6197;SDS011;3132;42.622;23.328;2023-06-14T09:02:38;19.35;;;17.27;;
6197;SDS011;3132;42.622;23.328;2023-06-14T09:05:08;18.75;;;16.95;;
6197;SDS011;3132;42.622;23.328;2023-06-14T09:07:34;21.15;;;17.48;;
6197;SDS011;3132;42.622;23.328;2023-06-14T09:10:08;18.73;;;16.73;;
6197;SDS011;3132;42.622;23.328;2023-06-14T09:12:35;20.02;;;16.98;;
6197;SDS011;3132;42.622;23.328;2023-06-14T09:15:01;21.02;;;17.05;;
6197;SDS011;3132;42.622;23.328;2023-06-14T09:17:31;18.67;;;16.83;;
6197;SDS011;3132;42.622;23.328;2023-06-14T09:19:58;20.63;;;17.52;;
6197;SDS011;3132;42.622;23.328;2023-06-14T09:22:24;20.08;;;15.98;;
6197;SDS011;3132;42.622;23.328;2023-06-14T09:24:49;19.83;;;17.33;;
6197;SDS011;3132;42.622;23.328;2023-06-14T09:27:15;20.05;;;17.50;;
6197;SDS011;3132;42.622;23.328;2023-06-14T09:29:41;18.15;;;16.25;;
6197;SDS011;3132;42.622;23.328;2023-06-14T09:32:06;19.10;;;16.17;;
6197;SDS011;3132;42.622;23.328;2023-06-14T09:34:32;17.42;;;15.80;;
6197;SDS011;3132;42.622;23.328;2023-06-14T09:36:59;18.10;;;16.23;;
6197;SDS011;3132;42.622;23.328;2023-06-14T09:39:25;23.65;;;15.98;;
6197;SDS011;3132;42.622;23.328;2023-06-14T09:41:50;19.38;;;17.38;;
6197;SDS011;3132;42.622;23.328;2023-06-14T09:44:16;18.23;;;16.08;;
6197;SDS011;3132;42.622;23.328;2023-06-14T09:46:43;18.25;;;16.17;;
6197;SDS011;3132;42.622;23.328;2023-06-14T09:49:09;17.77;;;15.95;;
6197;SDS011;3132;42.622;23.328;2023-06-14T09:51:34;19.30;;;16.45;;
6197;SDS011;3132;42.622;23.328;2023-06-14T09:54:07;18.45;;;16.63;;
6197;SDS011;3132;42.622;23.328;2023-06-14T09:56:37;18.55;;;16.55;;
6197;SDS011;3132;42.622;23.328;2023-06-14T09:59:08;18.33;;;16.27;;
6197;SDS011;3132;42.622;23.328;2023-06-14T10:01:35;17.30;;;15.50;;
6197;SDS011;3132;42.622;23.328;2023-06-14T10:04:06;21.25;;;17.52;;
6197;SDS011;3132;42.622;23.328;2023-06-14T10:06:36;19.13;;;17.10;;
6197;SDS011;3132;42.622;23.328;2023-06-14T10:09:04;20.17;;;17.80;;
6197;SDS011;3132;42.622;23.328;2023-06-14T10:11:32;21.52;;;17.92;;
6197;SDS011;3132;42.622;23.328;2023-06-14T10:13:58;20.38;;;18.15;;
6197;SDS011;3132;42.622;23.328;2023-06-14T10:21:51;20.90;;;16.65;;
6197;SDS011;3132;42.622;23.328;2023-06-14T10:24:21;20.48;;;18.05;;
6197;SDS011;3132;42.622;23.328;2023-06-14T10:26:54;18.60;;;16.73;;
6197;SDS011;3132;42.622;23.328;2023-06-14T10:29:22;18.40;;;16.60;;
6197;SDS011;3132;42.622;23.328;2023-06-14T10:31:48;17.63;;;15.85;;
6197;SDS011;3132;42.622;23.328;2023-06-14T10:34:25;21.13;;;15.80;;
6197;SDS011;3132;42.622;23.328;2023-06-14T10:37:05;19.40;;;17.42;;
6197;SDS011;3132;42.622;23.328;2023-06-14T10:39:41;17.90;;;15.98;;
6197;SDS011;3132;42.622;23.328;2023-06-14T10:42:10;18.58;;;16.60;;
6197;SDS011;3132;42.622;23.328;2023-06-14T10:44:40;19.13;;;15.45;;
6197;SDS011;3132;42.622;23.328;2023-06-14T10:47:13;22.98;;;15.27;;
6197;SDS011;3132;42.622;23.328;2023-06-14T10:49:47;21.85;;;17.40;;
6197;SDS011;3132;42.622;23.328;2023-06-14T10:52:16;20.92;;;16.70;;
6197;SDS011;3132;42.622;23.328;2023-06-14T10:54:58;19.48;;;17.35;;
6197;SDS011;3132;42.622;23.328;2023-06-14T10:57:24;17.10;;;15.43;;
6197;SDS011;3132;42.622;23.328;2023-06-14T10:59:50;19.85;;;16.42;;
6197;SDS011;3132;42.622;23.328;2023-06-14T11:04:47;18.15;;;16.13;;
6197;SDS011;3132;42.622;23.328;2023-06-14T11:13:04;20.27;;;16.15;;
6197;SDS011;3132;42.622;23.328;2023-06-14T11:15:30;19.80;;;16.40;;
6197;SDS011;3132;42.622;23.328;2023-06-14T11:17:57;17.13;;;15.52;;
6197;SDS011;3132;42.622;23.328;2023-06-14T11:20:25;16.55;;;14.85;;
6197;SDS011;3132;42.622;23.328;2023-06-14T11:22:51;17.70;;;15.90;;
6197;SDS011;3132;42.622;23.328;2023-06-14T11:25:17;18.27;;;15.07;;
6197;SDS011;3132;42.622;23.328;2023-06-14T11:27:43;16.90;;;15.23;;
6197;SDS011;3132;42.622;23.328;2023-06-14T11:30:10;15.93;;;14.43;;
6197;SDS011;3132;42.622;23.328;2023-06-14T11:32:36;17.67;;;15.48;;
6197;SDS011;3132;42.622;23.328;2023-06-14T11:35:03;16.83;;;15.13;;
6197;SDS011;3132;42.622;23.328;2023-06-14T11:37:32;16.90;;;15.20;;
6197;SDS011;3132;42.622;23.328;2023-06-14T11:39:59;17.52;;;15.63;;
6197;SDS011;3132;42.622;23.328;2023-06-14T11:42:31;17.70;;;16.00;;
6197;SDS011;3132;42.622;23.328;2023-06-14T11:44:56;17.10;;;14.68;;
6197;SDS011;3132;42.622;23.328;2023-06-14T11:47:22;14.93;;;13.52;;
6197;SDS011;3132;42.622;23.328;2023-06-14T11:49:47;14.98;;;13.68;;
6197;SDS011;3132;42.622;23.328;2023-06-14T11:52:13;13.95;;;12.75;;
6197;SDS011;3132;42.622;23.328;2023-06-14T11:54:39;14.50;;;13.18;;
6197;SDS011;3132;42.622;23.328;2023-06-14T11:57:06;14.82;;;13.45;;
6197;SDS011;3132;42.622;23.328;2023-06-14T11:59:37;15.68;;;14.05;;
6197;SDS011;3132;42.622;23.328;2023-06-14T12:02:04;14.15;;;12.75;;
6197;SDS011;3132;42.622;23.328;2023-06-14T12:04:31;15.45;;;13.95;;
6197;SDS011;3132;42.622;23.328;2023-06-14T12:06:56;15.50;;;14.20;;
6197;SDS011;3132;42.622;23.328;2023-06-14T12:09:22;14.25;;;13.02;;
6197;SDS011;3132;42.622;23.328;2023-06-14T12:11:51;13.52;;;12.40;;
6197;SDS011;3132;42.622;23.328;2023-06-14T12:14:28;15.45;;;13.77;;
6197;SDS011;3132;42.622;23.328;2023-06-14T12:17:03;14.48;;;13.15;;
6197;SDS011;3132;42.622;23.328;2023-06-14T12:19:31;12.45;;;11.45;;
6197;SDS011;3132;42.622;23.328;2023-06-14T12:21:57;13.30;;;11.93;;
6197;SDS011;3132;42.622;23.328;2023-06-14T12:24:28;12.15;;;11.25;;
6197;SDS011;3132;42.622;23.328;2023-06-14T12:26:54;14.27;;;13.18;;
6197;SDS011;3132;42.622;23.328;2023-06-14T12:29:24;13.48;;;12.05;;
6197;SDS011;3132;42.622;23.328;2023-06-14T12:31:50;12.95;;;11.85;;
6197;SDS011;3132;42.622;23.328;2023-06-14T12:34:15;13.60;;;12.32;;
6197;SDS011;3132;42.622;23.328;2023-06-14T12:36:41;13.35;;;12.15;;
6197;SDS011;3132;42.622;23.328;2023-06-14T12:39:09;14.02;;;12.82;;
6197;SDS011;3132;42.622;23.328;2023-06-14T12:41:35;13.52;;;12.45;;
6197;SDS011;3132;42.622;23.328;2023-06-14T12:44:01;12.85;;;11.85;;
6197;SDS011;3132;42.622;23.328;2023-06-14T12:46:29;13.10;;;12.00;;
6197;SDS011;3132;42.622;23.328;2023-06-14T12:48:56;14.30;;;12.90;;
6197;SDS011;3132;42.622;23.328;2023-06-14T12:51:21;14.10;;;13.00;;
6197;SDS011;3132;42.622;23.328;2023-06-14T12:53:47;13.80;;;12.70;;
6197;SDS011;3132;42.622;23.328;2023-06-14T12:56:13;16.95;;;13.25;;
6197;SDS011;3132;42.622;23.328;2023-06-14T12:58:40;13.52;;;12.23;;
6197;SDS011;3132;42.622;23.328;2023-06-14T13:01:06;14.65;;;13.18;;
6197;SDS011;3132;42.622;23.328;2023-06-14T13:03:32;13.63;;;12.48;;
6197;SDS011;3132;42.622;23.328;2023-06-14T13:05:58;14.00;;;12.90;;
6197;SDS011;3132;42.622;23.328;2023-06-14T13:08:24;14.25;;;13.02;;
6197;SDS011;3132;42.622;23.328;2023-06-14T13:10:49;14.77;;;13.50;;
6197;SDS011;3132;42.622;23.328;2023-06-14T13:13:14;15.02;;;13.63;;
6197;SDS011;3132;42.622;23.328;2023-06-14T13:15:40;15.82;;;14.32;;
6197;SDS011;3132;42.622;23.328;2023-06-14T13:18:05;16.27;;;14.00;;
6197;SDS011;3132;42.622;23.328;2023-06-14T13:20:31;14.85;;;13.32;;
6197;SDS011;3132;42.622;23.328;2023-06-14T13:22:56;17.98;;;12.80;;
6197;SDS011;3132;42.622;23.328;2023-06-14T13:25:22;14.38;;;13.15;;
6197;SDS011;3132;42.622;23.328;2023-06-14T13:27:47;15.38;;;13.93;;
6197;SDS011;3132;42.622;23.328;2023-06-14T13:30:13;17.73;;;14.87;;
6197;SDS011;3132;42.622;23.328;2023-06-14T13:32:38;15.10;;;13.50;;
6197;SDS011;3132;42.622;23.328;2023-06-14T13:35:04;15.70;;;14.25;;
6197;SDS011;3132;42.622;23.328;2023-06-14T13:37:30;15.43;;;13.83;;
6197;SDS011;3132;42.622;23.328;2023-06-14T13:39:56;17.10;;;15.30;;
6197;SDS011;3132;42.622;23.328;2023-06-14T13:42:21;15.37;;;13.77;;
6197;SDS011;3132;42.622;23.328;2023-06-14T13:44:46;15.77;;;14.30;;
6197;SDS011;3132;42.622;23.328;2023-06-14T13:47:12;17.67;;;15.18;;
6197;SDS011;3132;42.622;23.328;2023-06-14T13:49:37;15.43;;;13.93;;
6197;SDS011;3132;42.622;23.328;2023-06-14T13:52:03;16.40;;;14.80;;
6197;SDS011;3132;42.622;23.328;2023-06-14T13:54:28;16.30;;;13.83;;
6197;SDS011;3132;42.622;23.328;2023-06-14T13:56:54;16.03;;;14.33;;
6197;SDS011;3132;42.622;23.328;2023-06-14T13:59:19;15.90;;;14.30;;
6197;SDS011;3132;42.622;23.328;2023-06-14T14:01:45;15.83;;;13.53;;
6197;SDS011;3132;42.622;23.328;2023-06-14T14:04:10;14.93;;;13.53;;
6197;SDS011;3132;42.622;23.328;2023-06-14T14:06:36;14.73;;;13.33;;
6197;SDS011;3132;42.622;23.328;2023-06-14T14:09:02;14.50;;;13.23;;
6197;SDS011;3132;42.622;23.328;2023-06-14T14:11:28;13.63;;;12.50;;
6197;SDS011;3132;42.622;23.328;2023-06-14T14:13:54;12.70;;;11.73;;
6197;SDS011;3132;42.622;23.328;2023-06-14T14:16:19;13.33;;;12.13;;
6197;SDS011;3132;42.622;23.328;2023-06-14T14:18:45;12.73;;;11.70;;
6197;SDS011;3132;42.622;23.328;2023-06-14T14:21:11;13.73;;;12.63;;
6197;SDS011;3132;42.622;23.328;2023-06-14T14:23:36;13.47;;;12.07;;
6197;SDS011;3132;42.622;23.328;2023-06-14T14:26:02;12.67;;;11.47;;
6197;SDS011;3132;42.622;23.328;2023-06-14T14:28:29;11.60;;;10.60;;
6197;SDS011;3132;42.622;23.328;2023-06-14T14:30:56;11.87;;;11.07;;
6197;SDS011;3132;42.622;23.328;2023-06-14T14:33:21;11.97;;;11.07;;
6197;SDS011;3132;42.622;23.328;2023-06-14T14:35:47;13.27;;;11.90;;
6197;SDS011;3132;42.622;23.328;2023-06-14T14:38:13;13.30;;;12.20;;
6197;SDS011;3132;42.622;23.328;2023-06-14T14:40:40;12.47;;;11.40;;
6197;SDS011;3132;42.622;23.328;2023-06-14T14:43:06;13.93;;;12.63;;
6197;SDS011;3132;42.622;23.328;2023-06-14T14:45:31;13.60;;;12.17;;
6197;SDS011;3132;42.622;23.328;2023-06-14T14:47:57;14.73;;;13.53;;
6197;SDS011;3132;42.622;23.328;2023-06-14T14:50:22;15.30;;;13.90;;